createdAt,value
2023-05-08T00:00:29.317Z,6.88
2023-05-08T00:02:56.581Z,7.25
2023-05-08T00:05:23.814Z,7.22
2023-05-08T00:07:52.220Z,7.28
2023-05-08T00:10:19.242Z,7.53
2023-05-08T00:12:46.246Z,7.25
2023-05-08T00:15:13.365Z,7.60
2023-05-08T00:17:40.314Z,7.32
2023-05-08T00:20:08.813Z,7.70
2023-05-08T00:22:36.315Z,7.15
2023-05-08T00:25:05.470Z,7.20
2023-05-08T00:27:33.142Z,8.68
2023-05-08T00:30:00.441Z,7.80
2023-05-08T00:32:27.681Z,7.65
2023-05-08T00:34:54.742Z,7.55
2023-05-08T00:37:22.038Z,8.07
2023-05-08T00:39:49.113Z,8.40
2023-05-08T00:42:16.173Z,7.95
2023-05-08T00:44:43.313Z,7.75
2023-05-08T00:47:10.466Z,8.57
2023-05-08T00:49:38.420Z,8.05
2023-05-08T00:52:09.442Z,8.13
2023-05-08T00:54:38.262Z,8.23
2023-05-08T00:57:07.949Z,8.55
2023-05-08T00:59:37.444Z,8.40
2023-05-08T01:02:05.245Z,8.88
2023-05-08T01:04:34.822Z,8.73
2023-05-08T01:07:03.584Z,8.48
2023-05-08T01:09:30.683Z,8.45
2023-05-08T01:12:24.146Z,8.48
2023-05-08T01:15:17.564Z,9.18
2023-05-08T01:18:16.565Z,8.80
2023-05-08T01:21:01.177Z,7.85
2023-05-08T01:24:05.442Z,8.70
2023-05-08T01:27:18.956Z,9.52
2023-05-08T01:30:11.530Z,8.52
2023-05-08T01:33:24.904Z,8.98
2023-05-08T01:36:00.741Z,8.90
2023-05-08T01:38:40.072Z,8.40
2023-05-08T01:41:17.153Z,8.10
2023-05-08T01:44:08.380Z,8.75
2023-05-08T01:46:35.698Z,8.30
2023-05-08T01:49:14.149Z,8.95
2023-05-08T01:51:48.839Z,9.27
2023-05-08T01:54:24.234Z,9.13
2023-05-08T01:56:56.117Z,9.48
2023-05-08T01:59:26.334Z,9.15
2023-05-08T02:01:58.112Z,8.88
2023-05-08T02:04:27.412Z,9.20
2023-05-08T02:06:57.872Z,9.05
2023-05-08T02:09:29.427Z,9.55
2023-05-08T02:12:00.670Z,10.25
2023-05-08T02:14:29.643Z,9.23
2023-05-08T02:16:59.263Z,9.45
2023-05-08T02:19:29.345Z,8.93
2023-05-08T02:21:59.635Z,8.80
2023-05-08T02:24:27.232Z,9.27
2023-05-08T02:26:56.080Z,9.63
2023-05-08T02:29:24.649Z,9.68
2023-05-08T02:31:56.091Z,9.85
2023-05-08T02:34:25.648Z,9.77
2023-05-08T02:36:54.909Z,9.35
2023-05-08T02:39:26.766Z,8.70
2023-05-08T02:41:53.953Z,10.23
2023-05-08T02:44:22.167Z,9.85
2023-05-08T02:47:16.207Z,9.43
2023-05-08T02:49:56.888Z,9.25
2023-05-08T02:52:47.406Z,9.48
2023-05-08T02:55:40.489Z,10.18
2023-05-08T02:58:35.722Z,9.93
2023-05-08T03:01:19.368Z,10.27
2023-05-08T03:04:08.860Z,9.73
2023-05-08T03:06:48.459Z,9.45
2023-05-08T03:09:26.755Z,10.95
2023-05-08T03:12:06.575Z,10.60
2023-05-08T03:14:44.442Z,10.38
2023-05-08T03:17:19.056Z,9.98
2023-05-08T03:19:55.117Z,10.93
2023-05-08T03:22:24.019Z,10.38
2023-05-08T03:24:54.691Z,10.73
2023-05-08T03:27:23.843Z,10.52
2023-05-08T03:29:52.909Z,10.80
2023-05-08T03:32:22.131Z,10.93
2023-05-08T03:34:50.779Z,10.30
2023-05-08T03:37:18.663Z,11.07
2023-05-08T03:39:45.934Z,11.38
2023-05-08T03:42:21.383Z,10.57
2023-05-08T03:45:52.718Z,10.63
2023-05-08T03:48:22.666Z,11.13
2023-05-08T03:50:50.968Z,10.45
2023-05-08T03:53:18.353Z,10.48
2023-05-08T03:55:45.924Z,11.38
2023-05-08T03:58:48.802Z,10.43
2023-05-08T04:04:08.459Z,10.63
2023-05-08T04:06:51.503Z,10.32
2023-05-08T04:09:37.301Z,11.18
2023-05-08T04:12:23.727Z,11.50
2023-05-08T04:15:07.606Z,10.10
2023-05-08T04:17:50.878Z,9.55
2023-05-08T04:20:27.667Z,10.40
2023-05-08T04:22:57.117Z,10.30
2023-05-08T04:25:26.356Z,9.90
2023-05-08T04:27:56.195Z,10.50
2023-05-08T04:30:24.424Z,10.60
2023-05-08T04:32:52.438Z,10.00
2023-05-08T04:35:20.086Z,9.90
2023-05-08T04:37:48.787Z,9.52
2023-05-08T04:40:17.257Z,10.30
2023-05-08T04:42:47.791Z,9.32
2023-05-08T04:45:17.754Z,10.20
2023-05-08T04:47:45.040Z,10.07
2023-05-08T04:50:12.339Z,9.90
2023-05-08T04:52:39.535Z,8.40
2023-05-08T04:55:07.935Z,9.13
2023-05-08T04:57:37.211Z,8.30
2023-05-08T05:00:07.972Z,8.23
2023-05-08T05:02:39.307Z,8.70
2023-05-08T05:05:07.764Z,7.53
2023-05-08T05:07:34.923Z,8.25
2023-05-08T05:10:02.953Z,8.60
2023-05-08T05:12:31.893Z,8.02
2023-05-08T05:14:59.100Z,7.82
2023-05-08T05:17:31.415Z,7.93
2023-05-08T05:19:59.860Z,8.63
2023-05-08T05:22:28.723Z,7.53
2023-05-08T05:24:56.448Z,8.13
2023-05-08T05:27:24.658Z,7.93
2023-05-08T05:29:52.904Z,7.53
2023-05-08T05:32:20.930Z,7.55
2023-05-08T05:34:48.413Z,7.20
2023-05-08T05:37:15.653Z,7.57
2023-05-08T05:39:42.758Z,6.45
2023-05-08T05:42:09.771Z,6.70
2023-05-08T05:44:37.545Z,6.72
2023-05-08T05:47:10.207Z,6.05
2023-05-08T05:49:39.722Z,6.45
2023-05-08T05:52:07.071Z,6.57
2023-05-08T05:54:34.582Z,5.72
2023-05-08T05:57:01.741Z,5.47
2023-05-08T05:59:29.020Z,5.95
2023-05-08T06:01:56.389Z,6.25
2023-05-08T06:04:23.613Z,5.80
2023-05-08T06:06:50.809Z,5.13
2023-05-08T06:09:18.096Z,5.88
2023-05-08T06:11:45.112Z,4.93
2023-05-08T06:14:12.543Z,5.22
2023-05-08T06:16:40.105Z,5.50
2023-05-08T06:19:08.055Z,5.63
2023-05-08T06:21:35.028Z,4.68
2023-05-08T06:24:03.190Z,5.13
2023-05-08T06:26:30.356Z,4.97
2023-05-08T06:28:57.422Z,4.72
2023-05-08T06:31:24.593Z,5.03
2023-05-08T06:33:51.598Z,4.90
2023-05-08T06:36:18.947Z,5.18
2023-05-08T06:38:46.523Z,4.53
2023-05-08T06:41:15.290Z,4.68
2023-05-08T06:43:42.512Z,5.25
2023-05-08T06:46:09.667Z,4.80
2023-05-08T06:48:36.681Z,4.75
2023-05-08T06:51:04.509Z,4.63
2023-05-08T06:53:31.623Z,5.00
2023-05-08T06:55:58.812Z,4.35
2023-05-08T06:58:25.940Z,3.50
2023-05-08T07:00:54.522Z,4.63
2023-05-08T07:03:21.586Z,4.63
2023-05-08T07:05:48.853Z,4.50
2023-05-08T07:08:15.971Z,4.20
2023-05-08T07:10:42.944Z,4.05
2023-05-08T07:13:10.025Z,4.20
2023-05-08T07:15:39.033Z,3.22
2023-05-08T07:18:09.927Z,4.22
2023-05-08T07:20:36.939Z,4.85
2023-05-08T07:23:03.978Z,3.80
2023-05-08T07:25:32.122Z,4.00
2023-05-08T07:28:01.122Z,3.97
2023-05-08T07:30:28.679Z,4.07
2023-05-08T07:32:55.796Z,4.05
2023-05-08T07:35:22.973Z,4.30
2023-05-08T07:37:50.044Z,3.78
2023-05-08T07:40:17.342Z,3.55
2023-05-08T07:42:45.191Z,3.72
2023-05-08T07:45:14.288Z,3.30
2023-05-08T07:47:56.114Z,3.00
2023-05-08T07:50:25.966Z,3.47
2023-05-08T07:52:53.101Z,3.47
2023-05-08T07:55:21.620Z,3.10
2023-05-08T07:57:48.808Z,2.95
2023-05-08T08:00:16.737Z,2.40
2023-05-08T08:02:45.022Z,2.50
2023-05-08T08:05:12.742Z,2.40
2023-05-08T08:07:40.639Z,2.47
2023-05-08T08:10:08.608Z,2.63
2023-05-08T08:12:36.042Z,1.92
2023-05-08T08:15:03.547Z,2.33
2023-05-08T08:17:31.226Z,2.10
2023-05-08T08:20:00.798Z,2.05
2023-05-08T08:22:27.841Z,2.20
2023-05-08T08:24:57.862Z,2.35
2023-05-08T08:27:25.906Z,2.20
2023-05-08T08:30:04.456Z,1.95
2023-05-08T08:32:39.708Z,1.80
2023-05-08T08:35:07.182Z,1.73
2023-05-08T08:37:35.047Z,2.20
2023-05-08T08:40:02.683Z,1.85
2023-05-08T08:42:30.514Z,1.90
2023-05-08T08:44:57.572Z,2.13
2023-05-08T08:47:29.978Z,1.98
2023-05-08T08:50:02.925Z,1.75
2023-05-08T08:52:52.221Z,1.63
2023-05-08T08:55:23.381Z,1.77
2023-05-08T08:58:16.206Z,1.77
2023-05-08T09:00:43.610Z,1.98
2023-05-08T09:03:10.921Z,1.77
2023-05-08T09:05:38.830Z,1.98
2023-05-08T09:08:09.926Z,1.48
2023-05-08T09:10:37.274Z,1.48
2023-05-08T09:13:05.714Z,1.83
2023-05-08T09:15:34.196Z,1.08
2023-05-08T09:18:02.741Z,1.52
2023-05-08T09:20:30.555Z,1.60
2023-05-08T09:23:02.076Z,1.60
2023-05-08T09:25:45.659Z,1.30
2023-05-08T09:28:22.078Z,1.45
2023-05-08T09:30:58.253Z,1.30
2023-05-08T09:33:28.024Z,1.45
2023-05-08T09:35:56.753Z,1.55
2023-05-08T09:38:38.259Z,1.40
2023-05-08T09:41:15.804Z,1.85
2023-05-08T09:43:59.738Z,1.95
2023-05-08T09:46:27.636Z,1.52
2023-05-08T09:48:59.142Z,1.17
2023-05-08T09:51:28.621Z,1.27
2023-05-08T09:53:59.029Z,1.77
2023-05-08T09:56:37.302Z,1.50
2023-05-08T09:59:21.822Z,1.40
2023-05-08T10:01:51.103Z,2.08
2023-05-08T10:04:18.272Z,1.52
2023-05-08T10:06:58.777Z,1.60
2023-05-08T10:09:32.841Z,1.35
2023-05-08T10:12:08.239Z,1.40
2023-05-08T10:14:35.309Z,1.65
2023-05-08T10:17:11.402Z,1.23
2023-05-08T10:19:45.003Z,1.50
2023-05-08T10:22:15.625Z,1.50
2023-05-08T10:24:49.758Z,1.95
2023-05-08T10:27:27.939Z,1.95
2023-05-08T10:30:02.102Z,1.60
2023-05-08T10:32:40.717Z,1.38
2023-05-08T10:35:12.265Z,1.48
2023-05-08T10:37:42.417Z,1.30
2023-05-08T10:40:11.603Z,1.40
2023-05-08T10:42:40.030Z,1.48
2023-05-08T10:45:09.534Z,1.65
2023-05-08T10:48:15.505Z,1.70
2023-05-08T10:51:13.142Z,1.50
2023-05-08T10:53:57.517Z,1.58
2023-05-08T10:56:30.948Z,1.70
2023-05-08T10:58:59.242Z,1.60
2023-05-08T11:01:27.076Z,1.10
2023-05-08T11:03:58.000Z,1.83
2023-05-08T11:06:47.141Z,1.90
2023-05-08T11:09:28.844Z,1.58
2023-05-08T11:12:29.329Z,1.50
2023-05-08T11:15:03.309Z,1.42
2023-05-08T11:17:30.692Z,1.30
2023-05-08T11:20:00.237Z,1.48
2023-05-08T11:22:33.145Z,1.30
2023-05-08T11:25:05.592Z,1.17
2023-05-08T11:28:17.028Z,1.70
2023-05-08T11:30:44.756Z,1.20
2023-05-08T11:33:14.893Z,1.42
2023-05-08T11:36:19.205Z,1.40
2023-05-08T11:39:13.126Z,1.58
2023-05-08T11:41:41.052Z,1.70
2023-05-08T11:44:20.767Z,1.40
2023-05-08T11:46:56.123Z,1.40
2023-05-08T11:49:29.540Z,1.10
2023-05-08T11:51:59.880Z,1.30
2023-05-08T11:54:31.615Z,1.25
2023-05-08T11:56:59.688Z,1.38
2023-05-08T11:59:26.997Z,1.40
2023-05-08T12:02:06.829Z,1.20
2023-05-08T12:04:47.580Z,1.20
2023-05-08T12:07:18.697Z,1.17
2023-05-08T12:09:49.234Z,1.45
2023-05-08T12:12:16.263Z,1.20
2023-05-08T12:14:43.572Z,1.30
2023-05-08T12:17:11.962Z,1.35
2023-05-08T12:19:39.382Z,1.40
2023-05-08T12:22:08.895Z,1.15
2023-05-08T12:24:36.168Z,1.38
2023-05-08T12:27:04.292Z,1.48
2023-05-08T12:29:37.241Z,1.15
2023-05-08T12:32:04.786Z,0.98
2023-05-08T12:34:31.794Z,0.90
2023-05-08T12:37:03.883Z,1.10
2023-05-08T12:39:40.245Z,1.20
2023-05-08T12:42:07.207Z,0.98
2023-05-08T12:44:34.276Z,1.08
2023-05-08T12:47:01.799Z,0.90
2023-05-08T12:49:32.976Z,1.00
2023-05-08T12:52:09.427Z,1.20
2023-05-08T12:54:48.518Z,1.30
2023-05-08T12:57:19.192Z,1.30
2023-05-08T12:59:47.243Z,0.95
2023-05-08T13:02:16.977Z,1.30
2023-05-08T13:04:45.184Z,1.00
2023-05-08T13:07:12.550Z,1.17
2023-05-08T13:09:40.443Z,1.10
2023-05-08T13:12:07.721Z,1.10
2023-05-08T13:14:34.772Z,1.15
2023-05-08T13:17:02.063Z,1.30
2023-05-08T13:19:29.171Z,0.98
2023-05-08T13:21:56.166Z,1.45
2023-05-08T13:24:23.548Z,1.05
2023-05-08T13:26:50.586Z,1.20
2023-05-08T13:29:17.921Z,1.13
2023-05-08T13:31:45.110Z,1.40
2023-05-08T13:34:12.424Z,1.10
2023-05-08T13:36:39.567Z,0.93
2023-05-08T13:39:06.620Z,1.25
2023-05-08T13:41:33.767Z,1.00
2023-05-08T13:44:00.936Z,1.10
2023-05-08T13:46:29.370Z,0.82
2023-05-08T13:48:56.709Z,0.90
2023-05-08T13:51:26.875Z,1.30
2023-05-08T13:53:53.916Z,1.50
2023-05-08T13:56:22.374Z,0.90
2023-05-08T13:58:52.296Z,1.00
2023-05-08T14:01:26.836Z,1.30
2023-05-08T14:03:55.713Z,1.05
2023-05-08T14:06:22.996Z,1.52
2023-05-08T14:08:52.731Z,1.13
2023-05-08T14:13:49.547Z,1.35
2023-05-08T14:16:16.644Z,1.70
2023-05-08T14:18:44.218Z,1.80
2023-05-08T14:21:11.413Z,1.52
2023-05-08T14:23:38.993Z,1.50
2023-05-08T14:26:06.053Z,1.35
2023-05-08T14:28:33.371Z,1.83
2023-05-08T14:31:00.613Z,1.40
2023-05-08T14:33:27.610Z,1.50
2023-05-08T14:35:54.846Z,1.30
2023-05-08T14:38:21.978Z,2.03
2023-05-08T14:40:54.361Z,1.55
2023-05-08T14:43:23.219Z,1.88
2023-05-08T14:46:06.830Z,1.65
2023-05-08T14:48:33.947Z,1.80
2023-05-08T14:51:01.489Z,1.60
2023-05-08T14:53:29.288Z,1.75
2023-05-08T14:55:56.639Z,1.80
2023-05-08T14:58:23.839Z,1.52
2023-05-08T15:00:50.996Z,1.55
2023-05-08T15:03:18.679Z,1.77
2023-05-08T15:05:47.227Z,1.67
2023-05-08T15:08:14.600Z,1.27
2023-05-08T15:10:41.597Z,1.50
2023-05-08T15:13:08.772Z,1.58
2023-05-08T15:15:38.502Z,1.75
2023-05-08T15:18:05.692Z,1.70
2023-05-08T15:20:32.810Z,1.50
2023-05-08T15:22:59.940Z,1.70
2023-05-08T15:25:27.006Z,1.75
2023-05-08T15:28:25.932Z,2.03
2023-05-08T15:30:53.074Z,1.70
2023-05-08T15:33:20.085Z,1.65
2023-05-08T15:35:47.367Z,2.08
2023-05-08T15:38:18.391Z,1.80
2023-05-08T15:43:21.513Z,1.83
2023-05-08T15:45:49.063Z,1.97
2023-05-08T15:48:17.137Z,1.77
2023-05-08T15:50:44.505Z,1.67
2023-05-08T15:53:11.846Z,1.88
2023-05-08T15:55:39.157Z,1.67
2023-05-08T15:58:06.371Z,1.35
2023-05-08T16:00:43.972Z,1.63
2023-05-08T16:03:12.376Z,2.13
2023-05-08T16:05:39.684Z,1.73
2023-05-08T16:08:08.357Z,2.20
2023-05-08T16:10:35.637Z,1.60
2023-05-08T16:13:02.892Z,1.90
2023-05-08T16:15:30.019Z,1.63
2023-05-08T16:18:01.049Z,1.98
2023-05-08T16:20:28.534Z,1.95
2023-05-08T16:22:55.978Z,2.10
2023-05-08T16:25:24.247Z,2.00
2023-05-08T16:27:51.763Z,2.00
2023-05-08T16:30:19.170Z,1.98
2023-05-08T16:32:46.421Z,2.10
2023-05-08T16:35:15.699Z,2.13
2023-05-08T16:37:43.716Z,1.70
2023-05-08T16:40:16.074Z,1.90
2023-05-08T16:42:43.214Z,1.80
2023-05-08T16:45:11.453Z,2.10
2023-05-08T16:47:39.093Z,2.35
2023-05-08T16:50:06.891Z,2.08
2023-05-08T16:52:34.348Z,5.18
2023-05-08T16:55:01.592Z,2.53
2023-05-08T16:57:28.747Z,1.95
2023-05-08T16:59:56.104Z,2.35
2023-05-08T17:02:23.392Z,2.60
2023-05-08T17:04:50.882Z,2.30
2023-05-08T17:07:18.299Z,2.30
2023-05-08T17:09:45.816Z,2.28
2023-05-08T17:12:13.332Z,2.72
2023-05-08T17:14:58.434Z,2.90
2023-05-08T17:17:25.707Z,2.97
2023-05-08T17:19:52.687Z,2.75
2023-05-08T17:22:20.606Z,2.40
2023-05-08T17:24:48.114Z,2.83
2023-05-08T17:27:15.201Z,2.90
2023-05-08T17:29:42.455Z,2.45
2023-05-08T17:32:09.648Z,2.60
2023-05-08T17:34:37.096Z,2.58
2023-05-08T17:37:04.615Z,3.05
2023-05-08T17:39:31.663Z,2.90
2023-05-08T17:41:58.720Z,3.08
2023-05-08T17:44:26.004Z,2.90
2023-05-08T17:46:53.129Z,2.80
2023-05-08T17:49:20.262Z,2.75
2023-05-08T17:51:47.418Z,3.08
2023-05-08T17:54:14.560Z,2.90
2023-05-08T17:56:41.890Z,2.83
2023-05-08T17:59:09.003Z,3.00
2023-05-08T18:01:36.104Z,3.47
2023-05-08T18:04:03.402Z,3.25
2023-05-08T18:06:30.624Z,2.80
2023-05-08T18:08:57.573Z,2.92
2023-05-08T18:11:27.221Z,3.50
2023-05-08T18:13:55.052Z,3.22
2023-05-08T18:16:22.835Z,3.50
2023-05-08T18:18:50.244Z,2.95
2023-05-08T18:21:17.743Z,3.17
2023-05-08T18:23:44.826Z,3.28
2023-05-08T18:26:16.259Z,3.10
2023-05-08T18:28:44.822Z,3.20
2023-05-08T18:31:16.873Z,3.22
2023-05-08T18:33:44.213Z,3.65
2023-05-08T18:36:12.965Z,3.42
2023-05-08T18:38:45.171Z,3.92
2023-05-08T18:41:13.478Z,3.65
2023-05-08T18:43:41.684Z,3.80
2023-05-08T18:46:15.094Z,4.05
2023-05-08T18:48:42.737Z,4.53
2023-05-08T18:51:10.691Z,4.32
2023-05-08T18:53:39.565Z,4.20
2023-05-08T18:56:12.786Z,4.22
2023-05-08T18:58:40.648Z,4.55
2023-05-08T19:04:26.386Z,4.65
2023-05-08T19:07:26.217Z,4.55
2023-05-08T19:10:23.344Z,3.97
2023-05-08T19:12:56.132Z,4.40
2023-05-08T19:15:47.707Z,5.15
2023-05-08T19:18:30.906Z,5.13
2023-05-08T19:20:58.472Z,4.65
2023-05-08T19:23:25.832Z,5.05
2023-05-08T19:25:53.210Z,5.32
2023-05-08T19:28:20.803Z,5.38
2023-05-08T19:30:48.209Z,5.30
2023-05-08T19:33:15.264Z,5.43
2023-05-08T19:35:43.209Z,5.30
2023-05-08T19:38:10.379Z,5.30
2023-05-08T19:40:48.406Z,4.80
2023-05-08T19:43:26.514Z,5.45
2023-05-08T19:45:55.072Z,6.10
2023-05-08T19:48:22.559Z,5.78
2023-05-08T19:50:55.118Z,5.53
2023-05-08T19:53:23.778Z,5.43
2023-05-08T19:55:50.929Z,5.90
2023-05-08T19:58:18.469Z,5.78
2023-05-08T20:01:03.284Z,5.80
2023-05-08T20:03:30.635Z,6.05
2023-05-08T20:05:58.066Z,5.72
2023-05-08T20:08:33.831Z,6.00
2023-05-08T20:11:06.009Z,5.32
2023-05-08T20:13:44.286Z,5.30
2023-05-08T20:16:15.881Z,5.50
2023-05-08T20:18:43.584Z,5.60
2023-05-08T20:21:39.714Z,5.63
2023-05-08T20:24:11.382Z,5.63
2023-05-08T20:26:42.525Z,6.00
2023-05-08T20:29:10.085Z,6.00
2023-05-08T20:31:37.217Z,5.63
2023-05-08T20:34:04.500Z,5.35
2023-05-08T20:36:32.001Z,5.63
2023-05-08T20:39:02.145Z,5.30
2023-05-08T20:41:29.313Z,5.20
2023-05-08T20:43:56.333Z,6.40
2023-05-08T20:46:23.548Z,6.10
2023-05-08T20:48:51.458Z,6.10
2023-05-08T20:51:21.278Z,5.85
2023-05-08T20:53:51.772Z,5.60
2023-05-08T20:56:21.869Z,6.47
2023-05-08T20:58:49.332Z,5.95
2023-05-08T21:01:25.459Z,5.50
2023-05-08T21:03:53.628Z,5.57
2023-05-08T21:06:25.728Z,5.38
2023-05-08T21:09:01.549Z,5.43
2023-05-08T21:11:29.192Z,6.00
2023-05-08T21:13:57.293Z,5.55
2023-05-08T21:16:26.680Z,5.82
2023-05-08T21:18:56.047Z,6.35
2023-05-08T21:21:25.685Z,5.53
2023-05-08T21:23:53.554Z,6.60
2023-05-08T21:26:23.746Z,5.88
2023-05-08T21:28:52.554Z,5.78
2023-05-08T21:31:20.202Z,5.80
2023-05-08T21:33:47.475Z,6.07
2023-05-08T21:36:14.636Z,5.88
2023-05-08T21:38:41.978Z,5.50
2023-05-08T21:41:13.281Z,6.78
2023-05-08T21:43:49.956Z,6.22
2023-05-08T21:46:17.182Z,6.18
2023-05-08T21:48:44.287Z,6.75
2023-05-08T21:51:12.103Z,7.22
2023-05-08T21:53:39.317Z,5.97
2023-05-08T21:56:06.659Z,6.22
2023-05-08T21:58:52.768Z,6.07
2023-05-08T22:02:17.472Z,5.93
2023-05-08T22:07:43.201Z,5.88
2023-05-08T22:10:12.877Z,5.82
2023-05-08T22:12:40.341Z,5.70
2023-05-08T22:15:18.002Z,5.50
2023-05-08T22:17:50.744Z,5.07
2023-05-08T22:20:18.221Z,4.75
2023-05-08T22:22:45.791Z,4.78
2023-05-08T22:25:13.198Z,5.00
2023-05-08T22:27:40.788Z,4.65
2023-05-08T22:30:08.503Z,4.40
2023-05-08T22:33:01.478Z,4.65
2023-05-08T22:37:57.848Z,4.47
2023-05-08T22:40:25.525Z,4.90
2023-05-08T22:42:58.766Z,4.80
2023-05-08T22:45:30.096Z,4.80
2023-05-08T22:48:05.996Z,4.63
2023-05-08T22:50:35.041Z,4.90
2023-05-08T22:53:08.386Z,4.45
2023-05-08T22:55:53.054Z,4.82
2023-05-08T22:58:27.329Z,4.30
2023-05-08T23:01:07.680Z,4.45
2023-05-08T23:03:36.857Z,4.30
2023-05-08T23:06:04.200Z,4.88
2023-05-08T23:08:31.323Z,4.53
2023-05-08T23:10:58.334Z,4.22
2023-05-08T23:13:25.468Z,4.40
2023-05-08T23:15:52.767Z,4.63
2023-05-08T23:18:19.775Z,3.92
2023-05-08T23:20:46.846Z,4.45
2023-05-08T23:23:13.989Z,3.90
2023-05-08T23:25:41.269Z,3.95
2023-05-08T23:28:08.617Z,3.83
2023-05-08T23:30:35.888Z,4.70
2023-05-08T23:33:02.941Z,3.85
2023-05-08T23:35:30.258Z,4.00
2023-05-08T23:37:57.420Z,4.55
2023-05-08T23:40:24.547Z,4.03
2023-05-08T23:42:52.280Z,4.07
2023-05-08T23:45:19.485Z,3.80
2023-05-08T23:47:46.635Z,4.35
2023-05-08T23:50:16.741Z,4.25
2023-05-08T23:52:44.005Z,4.03
2023-05-08T23:55:11.269Z,4.47
2023-05-08T23:57:38.630Z,3.38
